sensor_id;sensor_type;location;lat;lon;timestamp;pressure;altitude;pressure_sealevel;temperature;humidity
15272;BME280;7737;51.578;7.268;2023-05-08T00:00:08;101510.78;;;14.53;100.00
15272;BME280;7737;51.578;7.268;2023-05-08T00:02:35;101509.41;;;14.61;100.00
15272;BME280;7737;51.578;7.268;2023-05-08T00:05:01;101503.59;;;14.53;100.00
15272;BME280;7737;51.578;7.268;2023-05-08T00:07:30;101502.19;;;14.63;100.00
15272;BME280;7737;51.578;7.268;2023-05-08T00:09:56;101509.50;;;14.60;100.00
15272;BME280;7737;51.578;7.268;2023-05-08T00:12:23;101506.06;;;14.58;100.00
15272;BME280;7737;51.578;7.268;2023-05-08T00:14:49;101506.94;;;14.58;100.00
15272;BME280;7737;51.578;7.268;2023-05-08T00:17:16;101502.81;;;14.69;100.00
15272;BME280;7737;51.578;7.268;2023-05-08T00:19:42;101508.97;;;14.53;100.00
15272;BME280;7737;51.578;7.268;2023-05-08T00:22:09;101505.34;;;14.54;100.00
15272;BME280;7737;51.578;7.268;2023-05-08T00:24:37;101507.19;;;14.37;100.00
15272;BME280;7737;51.578;7.268;2023-05-08T00:27:04;101507.34;;;14.34;100.00
15272;BME280;7737;51.578;7.268;2023-05-08T00:29:30;101510.97;;;14.33;100.00
15272;BME280;7737;51.578;7.268;2023-05-08T00:31:57;101508.75;;;14.41;100.00
15272;BME280;7737;51.578;7.268;2023-05-08T00:34:23;101499.34;;;14.34;100.00
15272;BME280;7737;51.578;7.268;2023-05-08T00:36:50;101499.75;;;14.25;100.00
15272;BME280;7737;51.578;7.268;2023-05-08T00:39:17;101502.28;;;14.28;100.00
15272;BME280;7737;51.578;7.268;2023-05-08T00:41:45;101513.75;;;14.30;100.00
15272;BME280;7737;51.578;7.268;2023-05-08T00:44:12;101503.06;;;14.30;100.00
15272;BME280;7737;51.578;7.268;2023-05-08T00:46:39;101515.19;;;14.20;100.00
15272;BME280;7737;51.578;7.268;2023-05-08T00:49:07;101510.19;;;14.14;100.00
15272;BME280;7737;51.578;7.268;2023-05-08T00:51:35;101510.00;;;14.17;100.00
15272;BME280;7737;51.578;7.268;2023-05-08T00:54:03;101507.66;;;14.11;100.00
15272;BME280;7737;51.578;7.268;2023-05-08T00:56:30;101506.47;;;13.99;100.00
15272;BME280;7737;51.578;7.268;2023-05-08T00:58:59;101506.47;;;13.99;100.00
15272;BME280;7737;51.578;7.268;2023-05-08T01:01:26;101507.50;;;13.96;100.00
15272;BME280;7737;51.578;7.268;2023-05-08T01:03:52;101504.97;;;13.93;100.00
15272;BME280;7737;51.578;7.268;2023-05-08T01:06:19;101511.09;;;13.95;100.00
15272;BME280;7737;51.578;7.268;2023-05-08T01:08:46;101503.25;;;13.92;100.00
15272;BME280;7737;51.578;7.268;2023-05-08T01:11:17;101509.84;;;13.85;100.00
15272;BME280;7737;51.578;7.268;2023-05-08T01:13:50;101502.69;;;13.86;100.00
15272;BME280;7737;51.578;7.268;2023-05-08T01:16:23;101504.19;;;13.91;100.00
15272;BME280;7737;51.578;7.268;2023-05-08T01:18:59;101496.00;;;13.77;100.00
15272;BME280;7737;51.578;7.268;2023-05-08T01:21:31;101503.13;;;13.77;100.00
15272;BME280;7737;51.578;7.268;2023-05-08T01:24:27;101505.50;;;13.83;100.00
15272;BME280;7737;51.578;7.268;2023-05-08T01:27:28;101503.94;;;13.96;100.00
15272;BME280;7737;51.578;7.268;2023-05-08T01:30:18;101506.13;;;13.88;100.00
15272;BME280;7737;51.578;7.268;2023-05-08T01:32:55;101506.09;;;13.89;100.00
15272;BME280;7737;51.578;7.268;2023-05-08T01:35:27;101510.72;;;13.86;100.00
15272;BME280;7737;51.578;7.268;2023-05-08T01:37:59;101510.25;;;13.95;100.00
15272;BME280;7737;51.578;7.268;2023-05-08T01:40:34;101503.00;;;13.97;100.00
15272;BME280;7737;51.578;7.268;2023-05-08T01:43:09;101513.94;;;13.92;100.00
15272;BME280;7737;51.578;7.268;2023-05-08T01:45:39;101507.41;;;13.81;100.00
15272;BME280;7737;51.578;7.268;2023-05-08T01:48:10;101509.44;;;13.76;100.00
15272;BME280;7737;51.578;7.268;2023-05-08T01:50:41;101513.00;;;13.76;100.00
15272;BME280;7737;51.578;7.268;2023-05-08T01:53:16;101507.31;;;13.65;100.00
15272;BME280;7737;51.578;7.268;2023-05-08T01:55:46;101506.44;;;13.65;100.00
15272;BME280;7737;51.578;7.268;2023-05-08T01:58:14;101510.75;;;13.67;100.00
15272;BME280;7737;51.578;7.268;2023-05-08T02:00:42;101511.09;;;13.78;100.00
15272;BME280;7737;51.578;7.268;2023-05-08T02:03:13;101515.94;;;13.70;100.00
15272;BME280;7737;51.578;7.268;2023-05-08T02:05:40;101509.50;;;13.74;100.00
15272;BME280;7737;51.578;7.268;2023-05-08T02:08:10;101528.53;;;13.85;100.00
15272;BME280;7737;51.578;7.268;2023-05-08T02:10:38;101521.31;;;13.70;100.00
15272;BME280;7737;51.578;7.268;2023-05-08T02:13:07;101520.81;;;13.79;100.00
15272;BME280;7737;51.578;7.268;2023-05-08T02:15:36;101521.31;;;13.70;100.00
15272;BME280;7737;51.578;7.268;2023-05-08T02:18:06;101524.09;;;13.50;100.00
15272;BME280;7737;51.578;7.268;2023-05-08T02:20:36;101526.78;;;13.50;100.00
15272;BME280;7737;51.578;7.268;2023-05-08T02:23:04;101525.72;;;13.71;100.00
15272;BME280;7737;51.578;7.268;2023-05-08T02:25:31;101525.06;;;13.66;100.00
15272;BME280;7737;51.578;7.268;2023-05-08T02:27:59;101535.84;;;13.46;100.00
15272;BME280;7737;51.578;7.268;2023-05-08T02:30:26;101526.81;;;13.49;100.00
15272;BME280;7737;51.578;7.268;2023-05-08T02:32:54;101529.00;;;13.40;100.00
15272;BME280;7737;51.578;7.268;2023-05-08T02:35:23;101533.03;;;13.49;100.00
15272;BME280;7737;51.578;7.268;2023-05-08T02:37:54;101530.38;;;13.49;100.00
15272;BME280;7737;51.578;7.268;2023-05-08T02:40:23;101527.69;;;13.49;100.00
15272;BME280;7737;51.578;7.268;2023-05-08T02:42:51;101529.06;;;13.58;100.00
15272;BME280;7737;51.578;7.268;2023-05-08T02:45:18;101537.09;;;13.39;100.00
15272;BME280;7737;51.578;7.268;2023-05-08T02:47:47;101539.81;;;13.37;100.00
15272;BME280;7737;51.578;7.268;2023-05-08T02:50:19;101539.81;;;13.37;100.00
15272;BME280;7737;51.578;7.268;2023-05-08T02:52:48;101537.25;;;13.36;100.00
15272;BME280;7737;51.578;7.268;2023-05-08T02:55:25;101539.41;;;13.47;100.00
15272;BME280;7737;51.578;7.268;2023-05-08T02:58:02;101535.63;;;13.32;100.00
15272;BME280;7737;51.578;7.268;2023-05-08T03:00:32;101539.56;;;13.25;100.00
15272;BME280;7737;51.578;7.268;2023-05-08T03:03:08;101535.59;;;13.33;100.00
15272;BME280;7737;51.578;7.268;2023-05-08T03:05:38;101536.97;;;13.42;100.00
15272;BME280;7737;51.578;7.268;2023-05-08T03:08:13;101530.63;;;13.26;100.00
15272;BME280;7737;51.578;7.268;2023-05-08T03:10:44;101538.25;;;13.33;100.00
15272;BME280;7737;51.578;7.268;2023-05-08T03:13:12;101535.97;;;13.26;100.00
15272;BME280;7737;51.578;7.268;2023-05-08T03:15:43;101534.06;;;13.28;100.00
15272;BME280;7737;51.578;7.268;2023-05-08T03:18:14;101528.44;;;13.34;100.00
15272;BME280;7737;51.578;7.268;2023-05-08T03:20:44;101526.41;;;13.39;100.00
15272;BME280;7737;51.578;7.268;2023-05-08T03:23:12;101529.59;;;13.28;100.00
15272;BME280;7737;51.578;7.268;2023-05-08T03:25:42;101528.00;;;13.24;100.00
15272;BME280;7737;51.578;7.268;2023-05-08T03:28:09;101531.03;;;13.17;100.00
15272;BME280;7737;51.578;7.268;2023-05-08T03:30:37;101534.50;;;13.19;100.00
15272;BME280;7737;51.578;7.268;2023-05-08T03:33:06;101528.38;;;13.17;100.00
15272;BME280;7737;51.578;7.268;2023-05-08T03:35:33;101526.78;;;13.13;100.00
15272;BME280;7737;51.578;7.268;2023-05-08T03:38:01;101522.63;;;13.06;100.00
15272;BME280;7737;51.578;7.268;2023-05-08T03:40:28;101528.69;;;12.91;100.00
15272;BME280;7737;51.578;7.268;2023-05-08T03:42:57;101525.38;;;12.86;100.00
15272;BME280;7737;51.578;7.268;2023-05-08T03:45:25;101530.94;;;13.00;100.00
15272;BME280;7737;51.578;7.268;2023-05-08T03:47:53;101524.72;;;12.80;100.00
15272;BME280;7737;51.578;7.268;2023-05-08T03:50:21;101527.03;;;12.49;100.00
15272;BME280;7737;51.578;7.268;2023-05-08T03:52:49;101522.72;;;12.47;100.00
15272;BME280;7737;51.578;7.268;2023-05-08T03:55:15;101525.16;;;12.51;100.00
15272;BME280;7737;51.578;7.268;2023-05-08T03:57:49;101529.38;;;12.57;100.00
15272;BME280;7737;51.578;7.268;2023-05-08T04:00:28;101527.13;;;12.66;100.00
15272;BME280;7737;51.578;7.268;2023-05-08T04:03:10;101529.81;;;12.66;100.00
15272;BME280;7737;51.578;7.268;2023-05-08T04:05:45;101527.00;;;12.69;100.00
15272;BME280;7737;51.578;7.268;2023-05-08T04:08:16;101539.03;;;12.59;100.00
15272;BME280;7737;51.578;7.268;2023-05-08T04:10:48;101536.88;;;12.67;100.00
15272;BME280;7737;51.578;7.268;2023-05-08T04:13:18;101529.22;;;12.60;100.00
15272;BME280;7737;51.578;7.268;2023-05-08T04:15:50;101533.28;;;12.48;100.00
15272;BME280;7737;51.578;7.268;2023-05-08T04:18:18;101543.16;;;12.26;100.00
15272;BME280;7737;51.578;7.268;2023-05-08T04:20:47;101544.56;;;12.35;100.00
15272;BME280;7737;51.578;7.268;2023-05-08T04:23:19;101544.03;;;12.27;100.00
15272;BME280;7737;51.578;7.268;2023-05-08T04:25:48;101548.38;;;12.49;100.00
15272;BME280;7737;51.578;7.268;2023-05-08T04:28:17;101544.56;;;12.14;100.00
15272;BME280;7737;51.578;7.268;2023-05-08T04:30:44;101551.16;;;12.26;100.00
15272;BME280;7737;51.578;7.268;2023-05-08T04:33:12;101557.81;;;12.16;100.00
15272;BME280;7737;51.578;7.268;2023-05-08T04:35:39;101554.81;;;12.23;100.00
15272;BME280;7737;51.578;7.268;2023-05-08T04:38:06;101555.22;;;12.14;100.00
15272;BME280;7737;51.578;7.268;2023-05-08T04:40:33;101560.47;;;12.16;100.00
15272;BME280;7737;51.578;7.268;2023-05-08T04:42:59;101560.06;;;12.05;100.00
15272;BME280;7737;51.578;7.268;2023-05-08T04:45:26;101558.94;;;11.90;100.00
15272;BME280;7737;51.578;7.268;2023-05-08T04:47:52;101566.97;;;11.89;100.00
15272;BME280;7737;51.578;7.268;2023-05-08T04:50:20;101570.44;;;11.91;100.00
15272;BME280;7737;51.578;7.268;2023-05-08T04:52:47;101565.81;;;12.16;100.00
15272;BME280;7737;51.578;7.268;2023-05-08T04:55:14;101575.13;;;12.06;100.00
15272;BME280;7737;51.578;7.268;2023-05-08T04:57:40;101577.00;;;12.04;100.00
15272;BME280;7737;51.578;7.268;2023-05-08T05:00:07;101580.03;;;11.95;100.00
15272;BME280;7737;51.578;7.268;2023-05-08T05:02:34;101587.72;;;12.02;100.00
15272;BME280;7737;51.578;7.268;2023-05-08T05:05:01;101585.28;;;12.18;100.00
15272;BME280;7737;51.578;7.268;2023-05-08T05:07:29;101586.34;;;12.34;100.00
15272;BME280;7737;51.578;7.268;2023-05-08T05:09:55;101577.31;;;12.38;100.00
15272;BME280;7737;51.578;7.268;2023-05-08T05:12:22;101574.56;;;12.40;100.00
15272;BME280;7737;51.578;7.268;2023-05-08T05:14:48;101577.03;;;12.64;100.00
15272;BME280;7737;51.578;7.268;2023-05-08T05:17:15;101577.13;;;12.81;100.00
15272;BME280;7737;51.578;7.268;2023-05-08T05:19:41;101582.06;;;12.91;100.00
15272;BME280;7737;51.578;7.268;2023-05-08T05:22:08;101580.75;;;12.80;100.00
15272;BME280;7737;51.578;7.268;2023-05-08T05:24:36;101584.78;;;12.70;100.00
15272;BME280;7737;51.578;7.268;2023-05-08T05:27:04;101584.22;;;12.82;100.00
15272;BME280;7737;51.578;7.268;2023-05-08T05:29:30;101581.06;;;12.93;100.00
15272;BME280;7737;51.578;7.268;2023-05-08T05:31:56;101583.50;;;12.98;100.00
15272;BME280;7737;51.578;7.268;2023-05-08T05:34:23;101584.97;;;13.05;100.00
15272;BME280;7737;51.578;7.268;2023-05-08T05:36:50;101588.13;;;13.14;100.00
15272;BME280;7737;51.578;7.268;2023-05-08T05:39:16;101591.38;;;13.21;100.00
15272;BME280;7737;51.578;7.268;2023-05-08T05:41:44;101583.94;;;13.46;100.00
15272;BME280;7737;51.578;7.268;2023-05-08T05:44:10;101582.19;;;13.45;100.00
15272;BME280;7737;51.578;7.268;2023-05-08T05:46:37;101580.66;;;13.58;100.00
15272;BME280;7737;51.578;7.268;2023-05-08T05:49:03;101592.53;;;13.53;100.00
15272;BME280;7737;51.578;7.268;2023-05-08T05:51:30;101589.34;;;13.63;100.00
15272;BME280;7737;51.578;7.268;2023-05-08T05:53:56;101589.50;;;13.60;100.00
15272;BME280;7737;51.578;7.268;2023-05-08T05:56:23;101576.03;;;13.80;100.00
15272;BME280;7737;51.578;7.268;2023-05-08T05:58:51;101583.25;;;13.78;100.00
15272;BME280;7737;51.578;7.268;2023-05-08T06:01:17;101590.16;;;13.82;100.00
15272;BME280;7737;51.578;7.268;2023-05-08T06:03:44;101582.28;;;13.79;100.00
15272;BME280;7737;51.578;7.268;2023-05-08T06:06:10;101584.91;;;13.81;100.00
15272;BME280;7737;51.578;7.268;2023-05-08T06:08:37;101582.06;;;14.02;100.00
15272;BME280;7737;51.578;7.268;2023-05-08T06:11:03;101586.84;;;14.13;100.00
15272;BME280;7737;51.578;7.268;2023-05-08T06:13:30;101582.91;;;14.20;100.00
15272;BME280;7737;51.578;7.268;2023-05-08T06:15:58;101582.19;;;13.99;100.00
15272;BME280;7737;51.578;7.268;2023-05-08T06:18:24;101583.06;;;14.00;100.00
15272;BME280;7737;51.578;7.268;2023-05-08T06:20:55;101580.78;;;14.10;100.00
15272;BME280;7737;51.578;7.268;2023-05-08T06:23:22;101580.50;;;14.33;100.00
15272;BME280;7737;51.578;7.268;2023-05-08T06:25:48;101587.19;;;14.24;100.00
15272;BME280;7737;51.578;7.268;2023-05-08T06:28:15;101585.72;;;14.36;100.00
15272;BME280;7737;51.578;7.268;2023-05-08T06:30:41;101581.59;;;14.29;100.00
15272;BME280;7737;51.578;7.268;2023-05-08T06:33:09;101576.41;;;14.43;100.00
15272;BME280;7737;51.578;7.268;2023-05-08T06:35:36;101576.31;;;14.61;100.00
15272;BME280;7737;51.578;7.268;2023-05-08T06:38:03;101572.09;;;14.57;100.00
15272;BME280;7737;51.578;7.268;2023-05-08T06:40:30;101568.69;;;14.54;100.00
15272;BME280;7737;51.578;7.268;2023-05-08T06:42:57;101573.19;;;14.71;100.00
15272;BME280;7737;51.578;7.268;2023-05-08T06:45:23;101570.03;;;14.80;100.00
15272;BME280;7737;51.578;7.268;2023-05-08T06:47:50;101564.72;;;14.95;100.00
15272;BME280;7737;51.578;7.268;2023-05-08T06:50:18;101570.47;;;14.88;100.00
15272;BME280;7737;51.578;7.268;2023-05-08T06:52:44;101565.78;;;15.08;100.00
15272;BME280;7737;51.578;7.268;2023-05-08T06:55:11;101560.41;;;15.08;100.00
15272;BME280;7737;51.578;7.268;2023-05-08T06:57:37;101563.25;;;15.05;100.00
15272;BME280;7737;51.578;7.268;2023-05-08T07:00:05;101557.41;;;15.30;100.00
15272;BME280;7737;51.578;7.268;2023-05-08T07:02:31;101564.88;;;15.56;100.00
15272;BME280;7737;51.578;7.268;2023-05-08T07:04:58;101567.72;;;15.69;100.00
15272;BME280;7737;51.578;7.268;2023-05-08T07:07:26;101558.53;;;16.04;100.00
15272;BME280;7737;51.578;7.268;2023-05-08T07:09:52;101558.97;;;16.26;100.00
15272;BME280;7737;51.578;7.268;2023-05-08T07:12:19;101552.53;;;16.29;100.00
15272;BME280;7737;51.578;7.268;2023-05-08T07:14:45;101555.38;;;16.12;100.00
15272;BME280;7737;51.578;7.268;2023-05-08T07:17:13;101560.75;;;16.12;100.00
15272;BME280;7737;51.578;7.268;2023-05-08T07:19:40;101553.06;;;16.35;100.00
15272;BME280;7737;51.578;7.268;2023-05-08T07:22:06;101557.38;;;16.52;100.00
15272;BME280;7737;51.578;7.268;2023-05-08T07:24:34;101560.06;;;16.52;100.00
15272;BME280;7737;51.578;7.268;2023-05-08T07:27:01;101566.34;;;16.53;100.00
15272;BME280;7737;51.578;7.268;2023-05-08T07:29:27;101555.91;;;16.76;100.00
15272;BME280;7737;51.578;7.268;2023-05-08T07:31:54;101554.13;;;16.91;100.00
15272;BME280;7737;51.578;7.268;2023-05-08T07:34:20;101557.16;;;16.85;100.00
15272;BME280;7737;51.578;7.268;2023-05-08T07:36:47;101562.56;;;16.99;100.00
15272;BME280;7737;51.578;7.268;2023-05-08T07:39:13;101560.25;;;17.07;100.00
15272;BME280;7737;51.578;7.268;2023-05-08T07:41:41;101559.16;;;17.38;100.00
15272;BME280;7737;51.578;7.268;2023-05-08T07:44:10;101561.75;;;17.39;100.00
15272;BME280;7737;51.578;7.268;2023-05-08T07:46:36;101569.97;;;17.64;100.00
15272;BME280;7737;51.578;7.268;2023-05-08T07:49:03;101564.78;;;17.61;100.00
15272;BME280;7737;51.578;7.268;2023-05-08T07:51:30;101563.59;;;17.80;100.00
15272;BME280;7737;51.578;7.268;2023-05-08T07:53:57;101554.81;;;17.90;100.00
15272;BME280;7737;51.578;7.268;2023-05-08T07:56:24;101565.56;;;17.90;100.00
15272;BME280;7737;51.578;7.268;2023-05-08T07:58:52;101559.78;;;17.96;100.00
15272;BME280;7737;51.578;7.268;2023-05-08T08:01:19;101561.81;;;18.32;100.00
15272;BME280;7737;51.578;7.268;2023-05-08T08:03:46;101569.31;;;18.14;100.00
15272;BME280;7737;51.578;7.268;2023-05-08T08:06:12;101567.38;;;18.16;100.00
15272;BME280;7737;51.578;7.268;2023-05-08T08:08:39;101563.13;;;18.39;100.00
15272;BME280;7737;51.578;7.268;2023-05-08T08:11:06;101563.84;;;18.55;100.00
15272;BME280;7737;51.578;7.268;2023-05-08T08:13:32;101559.53;;;18.53;100.00
15272;BME280;7737;51.578;7.268;2023-05-08T08:16:00;101570.72;;;18.72;100.00
15272;BME280;7737;51.578;7.268;2023-05-08T08:18:28;101563.63;;;18.58;100.00
15272;BME280;7737;51.578;7.268;2023-05-08T08:20:55;101566.00;;;18.50;100.00
15272;BME280;7737;51.578;7.268;2023-05-08T08:23:21;101564.72;;;18.68;100.00
15272;BME280;7737;51.578;7.268;2023-05-08T08:25:48;101565.13;;;18.75;100.00
15272;BME280;7737;51.578;7.268;2023-05-08T08:28:14;101558.56;;;18.92;100.00
15272;BME280;7737;51.578;7.268;2023-05-08T08:30:42;101553.06;;;18.68;100.00
15272;BME280;7737;51.578;7.268;2023-05-08T08:33:10;101549.06;;;19.11;100.00
15272;BME280;7737;51.578;7.268;2023-05-08T08:35:36;101547.34;;;18.98;100.00
15272;BME280;7737;51.578;7.268;2023-05-08T08:38:03;101552.16;;;19.18;100.00
15272;BME280;7737;51.578;7.268;2023-05-08T08:40:29;101545.25;;;19.39;100.00
15272;BME280;7737;51.578;7.268;2023-05-08T08:42:56;101541.28;;;19.19;100.00
15272;BME280;7737;51.578;7.268;2023-05-08T08:45:23;101545.44;;;19.36;100.00
15272;BME280;7737;51.578;7.268;2023-05-08T08:47:51;101537.50;;;19.22;100.00
15272;BME280;7737;51.578;7.268;2023-05-08T08:50:21;101536.09;;;19.04;100.00
15272;BME280;7737;51.578;7.268;2023-05-08T08:52:55;101536.19;;;19.40;100.00
15272;BME280;7737;51.578;7.268;2023-05-08T08:55:26;101531.16;;;19.59;100.00
15272;BME280;7737;51.578;7.268;2023-05-08T08:58:02;101530.41;;;19.57;100.00
15272;BME280;7737;51.578;7.268;2023-05-08T09:00:35;101538.28;;;19.60;100.00
15272;BME280;7737;51.578;7.268;2023-05-08T09:03:02;101537.25;;;19.74;100.00
15272;BME280;7737;51.578;7.268;2023-05-08T09:05:31;101533.75;;;19.84;100.00
15272;BME280;7737;51.578;7.268;2023-05-08T09:07:58;101535.22;;;19.88;100.00
15272;BME280;7737;51.578;7.268;2023-05-08T09:10:26;101536.44;;;19.84;100.00
15272;BME280;7737;51.578;7.268;2023-05-08T09:12:52;101531.03;;;20.08;100.00
15272;BME280;7737;51.578;7.268;2023-05-08T09:15:19;101530.75;;;20.00;100.00
15272;BME280;7737;51.578;7.268;2023-05-08T09:17:46;101535.69;;;20.06;100.00
15272;BME280;7737;51.578;7.268;2023-05-08T09:20:13;101528.50;;;19.94;100.00
15272;BME280;7737;51.578;7.268;2023-05-08T09:22:42;101529.31;;;19.83;100.00
15272;BME280;7737;51.578;7.268;2023-05-08T09:25:09;101526.44;;;19.97;100.00
15272;BME280;7737;51.578;7.268;2023-05-08T09:27:35;101513.72;;;19.76;100.00
15272;BME280;7737;51.578;7.268;2023-05-08T09:30:04;101521.44;;;19.80;100.00
15272;BME280;7737;51.578;7.268;2023-05-08T09:32:32;101526.25;;;19.77;100.00
15272;BME280;7737;51.578;7.268;2023-05-08T09:34:59;101527.03;;;19.66;100.00
15272;BME280;7737;51.578;7.268;2023-05-08T09:37:27;101527.13;;;19.88;100.00
15272;BME280;7737;51.578;7.268;2023-05-08T09:40:11;101526.34;;;19.75;100.00
15272;BME280;7737;51.578;7.268;2023-05-08T09:42:38;101536.03;;;19.78;100.00
15272;BME280;7737;51.578;7.268;2023-05-08T09:45:06;101536.84;;;19.67;100.00
15272;BME280;7737;51.578;7.268;2023-05-08T09:47:34;101545.91;;;19.42;100.00
15272;BME280;7737;51.578;7.268;2023-05-08T09:50:03;101551.25;;;19.55;100.00
15272;BME280;7737;51.578;7.268;2023-05-08T09:52:31;101540.22;;;19.58;100.00
15272;BME280;7737;51.578;7.268;2023-05-08T09:55:00;101554.94;;;19.41;100.00
15272;BME280;7737;51.578;7.268;2023-05-08T09:57:28;101551.38;;;19.41;100.00
15272;BME280;7737;51.578;7.268;2023-05-08T10:00:04;101554.28;;;19.51;100.00
15272;BME280;7737;51.578;7.268;2023-05-08T10:02:32;101555.59;;;19.45;100.00
15272;BME280;7737;51.578;7.268;2023-05-08T10:04:58;101554.91;;;19.54;100.00
15272;BME280;7737;51.578;7.268;2023-05-08T10:07:29;101553.88;;;19.44;100.00
15272;BME280;7737;51.578;7.268;2023-05-08T10:10:02;101557.69;;;19.65;100.00
15272;BME280;7737;51.578;7.268;2023-05-08T10:12:29;101560.94;;;19.58;100.00
15272;BME280;7737;51.578;7.268;2023-05-08T10:14:56;101556.22;;;19.49;100.00
15272;BME280;7737;51.578;7.268;2023-05-08T10:17:26;101551.06;;;19.46;100.00
15272;BME280;7737;51.578;7.268;2023-05-08T10:19:57;101554.47;;;19.60;100.00
15272;BME280;7737;51.578;7.268;2023-05-08T10:22:27;101542.63;;;19.50;100.00
15272;BME280;7737;51.578;7.268;2023-05-08T10:24:56;101547.47;;;19.81;100.00
15272;BME280;7737;51.578;7.268;2023-05-08T10:27:30;101543.38;;;19.76;100.00
15272;BME280;7737;51.578;7.268;2023-05-08T10:30:01;101544.19;;;19.65;100.00
15272;BME280;7737;51.578;7.268;2023-05-08T10:32:39;101550.31;;;19.67;100.00
15272;BME280;7737;51.578;7.268;2023-05-08T10:35:10;101553.91;;;19.91;100.00
15272;BME280;7737;51.578;7.268;2023-05-08T10:37:38;101544.13;;;20.01;100.00
15272;BME280;7737;51.578;7.268;2023-05-08T10:40:07;101541.41;;;20.01;100.00
15272;BME280;7737;51.578;7.268;2023-05-08T10:42:36;101543.38;;;19.99;100.00
15272;BME280;7737;51.578;7.268;2023-05-08T10:45:05;101530.63;;;20.01;100.00
15272;BME280;7737;51.578;7.268;2023-05-08T10:47:44;101527.81;;;20.27;100.00
15272;BME280;7737;51.578;7.268;2023-05-08T10:50:32;101539.25;;;20.07;100.00
15272;BME280;7737;51.578;7.268;2023-05-08T10:53:06;101541.56;;;20.24;100.00
15272;BME280;7737;51.578;7.268;2023-05-08T10:55:35;101540.50;;;20.14;100.00
15272;BME280;7737;51.578;7.268;2023-05-08T10:58:05;101547.00;;;20.35;100.00
15272;BME280;7737;51.578;7.268;2023-05-08T11:03:38;101535.53;;;20.66;100.00
15272;BME280;7737;51.578;7.268;2023-05-08T11:06:04;101529.97;;;20.45;100.00
15272;BME280;7737;51.578;7.268;2023-05-08T11:08:31;101521.56;;;20.83;100.00
15272;BME280;7737;51.578;7.268;2023-05-08T11:11:03;101519.88;;;20.47;100.00
15272;BME280;7737;51.578;7.268;2023-05-08T11:13:34;101523.19;;;20.40;100.00
15272;BME280;7737;51.578;7.268;2023-05-08T11:16:03;101515.88;;;20.64;100.00
15272;BME280;7737;51.578;7.268;2023-05-08T11:18:30;101522.91;;;20.78;100.00
15272;BME280;7737;51.578;7.268;2023-05-08T11:20:58;101520.19;;;20.67;100.00
15272;BME280;7737;51.578;7.268;2023-05-08T11:23:26;101513.00;;;20.54;100.00
15272;BME280;7737;51.578;7.268;2023-05-08T11:26:00;101503.34;;;20.85;100.00
15272;BME280;7737;51.578;7.268;2023-05-08T11:28:30;101491.81;;;20.83;100.00
15272;BME280;7737;51.578;7.268;2023-05-08T11:31:03;101505.06;;;20.64;100.00
15272;BME280;7737;51.578;7.268;2023-05-08T11:33:31;101504.59;;;20.70;100.00
15272;BME280;7737;51.578;7.268;2023-05-08T11:35:59;101484.69;;;20.93;100.00
15272;BME280;7737;51.578;7.268;2023-05-08T11:38:28;101490.72;;;20.97;100.00
15272;BME280;7737;51.578;7.268;2023-05-08T11:40:57;101488.50;;;21.02;100.00
15272;BME280;7737;51.578;7.268;2023-05-08T11:46:19;101492.78;;;21.15;100.00
15272;BME280;7737;51.578;7.268;2023-05-08T11:48:46;101484.69;;;21.15;100.00
15272;BME280;7737;51.578;7.268;2023-05-08T11:51:16;101489.00;;;21.18;100.00
15272;BME280;7737;51.578;7.268;2023-05-08T11:53:43;101488.72;;;21.21;100.00
15272;BME280;7737;51.578;7.268;2023-05-08T11:56:11;101481.53;;;21.53;100.00
15272;BME280;7737;51.578;7.268;2023-05-08T11:58:37;101476.94;;;21.65;100.00
15272;BME280;7737;51.578;7.268;2023-05-08T12:01:04;101455.47;;;21.52;100.00
15272;BME280;7737;51.578;7.268;2023-05-08T12:03:32;101461.25;;;21.91;100.00
15272;BME280;7737;51.578;7.268;2023-05-08T12:05:59;101460.97;;;21.94;100.00
15272;BME280;7737;51.578;7.268;2023-05-08T12:08:28;101461.31;;;22.00;100.00
15272;BME280;7737;51.578;7.268;2023-05-08T12:10:56;101446.53;;;22.04;100.00
15272;BME280;7737;51.578;7.268;2023-05-08T12:13:25;101449.63;;;21.68;100.00
15272;BME280;7737;51.578;7.268;2023-05-08T12:15:54;101461.19;;;21.70;100.00
15272;BME280;7737;51.578;7.268;2023-05-08T12:18:21;101446.34;;;21.53;100.00
15272;BME280;7737;51.578;7.268;2023-05-08T12:20:55;101441.78;;;21.11;100.00
15272;BME280;7737;51.578;7.268;2023-05-08T12:23:22;101445.34;;;21.97;100.00
15272;BME280;7737;51.578;7.268;2023-05-08T12:25:51;101423.53;;;22.19;100.00
15272;BME280;7737;51.578;7.268;2023-05-08T12:28:18;101416.13;;;22.21;100.00
15272;BME280;7737;51.578;7.268;2023-05-08T12:30:45;101426.88;;;22.32;100.00
15272;BME280;7737;51.578;7.268;2023-05-08T12:33:12;101408.00;;;22.21;100.00
15272;BME280;7737;51.578;7.268;2023-05-08T12:35:38;101413.56;;;21.99;100.00
15272;BME280;7737;51.578;7.268;2023-05-08T12:38:07;101404.31;;;22.02;100.00
15272;BME280;7737;51.578;7.268;2023-05-08T12:40:40;101394.03;;;22.47;100.00
15272;BME280;7737;51.578;7.268;2023-05-08T12:43:08;101406.97;;;22.13;100.00
15272;BME280;7737;51.578;7.268;2023-05-08T12:45:39;101409.25;;;22.17;100.00
15272;BME280;7737;51.578;7.268;2023-05-08T12:48:07;101401.38;;;21.09;100.00
15272;BME280;7737;51.578;7.268;2023-05-08T12:50:35;101410.69;;;21.80;100.00
15272;BME280;7737;51.578;7.268;2023-05-08T12:53:04;101418.44;;;22.56;100.00
15272;BME280;7737;51.578;7.268;2023-05-08T12:55:34;101396.44;;;22.19;100.00
15272;BME280;7737;51.578;7.268;2023-05-08T12:58:02;101393.94;;;22.58;100.00
15272;BME280;7737;51.578;7.268;2023-05-08T13:00:37;101390.59;;;22.75;100.00
15272;BME280;7737;51.578;7.268;2023-05-08T13:03:05;101389.63;;;22.55;100.00